Time;durP1;ratioP1;P1;durP2;ratioP2;P2;SDS_P1;SDS_P2;PMS_P1;PMS_P2;Temp;Humidity;BMP_temperature;BMP_pressure;BME280_temperature;BME280_humidity;BME280_pressure;Samples;Min_cycle;Max_cycle;Signal;HPM_P1;HPM_P2
2021/07/15 00:01:23;;;;;;;29.13;21.33;;;;;;;24.43;58.23;98519.62;125731;1093;103258;-72
2021/07/15 00:03:52;;;;;;;31.05;21.55;;;;;;;24.41;58.42;98534.45;125692;1093;102958;-72
2021/07/15 00:06:42;;;;;;;28.33;19.93;;;;;;;24.41;58.82;98527.15;125677;1095;103039;-72
2021/07/15 00:09:15;;;;;;;26.87;19.77;;;;;;;24.39;58.92;98523.81;125728;1096;103009;-71
2021/07/15 00:11:49;;;;;;;31.90;21.60;;;;;;;24.38;58.36;98520.24;125729;1093;102909;-72
2021/07/15 00:14:23;;;;;;;27.13;18.43;;;;;;;24.37;58.78;98515.03;125654;1096;103418;-70
2021/07/15 00:16:57;;;;;;;27.73;20.27;;;;;;;24.38;58.59;98516.70;125699;1093;103041;-71
2021/07/15 00:19:32;;;;;;;27.67;19.03;;;;;;;24.40;58.74;98519.19;125654;1093;103004;-75
2021/07/15 00:22:04;;;;;;;31.35;20.00;;;;;;;24.41;58.60;98527.15;125739;1093;103364;-73
2021/07/15 00:24:35;;;;;;;28.77;19.77;;;;;;;24.43;58.99;98533.20;125684;1093;103017;-72
2021/07/15 00:27:04;;;;;;;29.87;21.17;;;;;;;24.43;59.11;98526.92;125635;1093;102937;-71
2021/07/15 00:29:32;;;;;;;29.30;21.67;;;;;;;24.43;59.03;98535.08;125683;1093;103383;-70
2021/07/15 00:32:01;;;;;;;25.85;19.55;;;;;;;24.38;58.99;98536.55;125670;1093;102913;-69
2021/07/15 00:34:30;;;;;;;27.13;20.07;;;;;;;24.37;59.29;98542.22;125704;1093;102913;-70
2021/07/15 00:36:58;;;;;;;27.77;21.00;;;;;;;24.37;58.77;98531.34;125715;1093;103364;-71
2021/07/15 00:39:26;;;;;;;28.35;21.80;;;;;;;24.37;59.28;98537.59;125712;1093;102997;-70
2021/07/15 00:41:54;;;;;;;29.30;21.23;;;;;;;24.38;59.21;98546.60;125719;1093;103012;-70
2021/07/15 00:44:26;;;;;;;28.40;19.17;;;;;;;24.35;59.22;98556.00;125675;1093;102947;-70
2021/07/15 00:46:54;;;;;;;28.60;20.37;;;;;;;24.35;58.86;98557.89;125703;1092;102938;-70
2021/07/15 00:49:23;;;;;;;29.30;20.70;;;;;;;24.34;58.96;98556.23;125677;1092;104494;-70
2021/07/15 00:51:55;;;;;;;28.55;21.90;;;;;;;24.33;59.05;98558.09;125700;1093;102936;-69
2021/07/15 00:54:27;;;;;;;26.70;19.53;;;;;;;24.31;59.49;98565.63;125683;1093;103014;-70
2021/07/15 00:56:58;;;;;;;26.83;20.07;;;;;;;24.31;59.13;98579.21;125692;1093;102934;-69
2021/07/15 00:59:26;;;;;;;27.77;19.80;;;;;;;24.28;59.45;98578.81;125692;1094;102908;-69
2021/07/15 01:01:54;;;;;;;33.63;21.00;;;;;;;24.22;58.93;98564.21;125719;1093;103093;-71
2021/07/15 01:04:26;;;;;;;30.10;20.23;;;;;;;24.17;59.16;98547.70;125644;1093;102932;-69
2021/07/15 01:06:56;;;;;;;28.93;20.07;;;;;;;24.17;59.52;98553.14;125703;1093;102916;-69
2021/07/15 01:09:29;;;;;;;27.73;19.53;;;;;;;24.17;59.25;98569.44;125680;1093;103010;-69
2021/07/15 01:12:23;;;;;;;28.13;22.05;;;;;;;24.14;59.37;98578.02;125712;1093;102941;-70
2021/07/15 01:15:13;;;;;;;31.07;20.57;;;;;;;24.06;59.18;98568.19;125713;1093;102941;-69
2021/07/15 01:17:54;;;;;;;27.50;19.47;;;;;;;24.03;59.63;98576.79;125658;1094;103151;-71
2021/07/15 01:20:47;;;;;;;31.83;19.57;;;;;;;23.98;59.60;98581.98;125691;1093;102916;-71
2021/07/15 01:23:53;;;;;;;28.40;19.57;;;;;;;23.88;59.64;98557.95;125706;1096;102927;-70
2021/07/15 01:26:41;;;;;;;28.43;19.93;;;;;;;23.86;59.63;98560.04;125695;1093;102915;-71
2021/07/15 01:29:28;;;;;;;29.37;20.43;;;;;;;23.83;59.42;98577.60;125690;1095;102908;-71
2021/07/15 01:32:04;;;;;;;29.77;19.77;;;;;;;23.82;60.19;98575.11;125657;1093;103082;-70
2021/07/15 01:34:39;;;;;;;30.57;20.03;;;;;;;23.79;59.65;98579.91;125695;1096;102997;-70
2021/07/15 01:37:11;;;;;;;31.10;21.20;;;;;;;23.78;59.41;98577.39;125662;1093;102948;-70
2021/07/15 01:39:46;;;;;;;32.25;21.10;;;;;;;23.74;59.96;98576.14;125722;1093;103134;-70
2021/07/15 01:42:20;;;;;;;31.53;19.60;;;;;;;23.70;59.61;98575.73;125698;1096;103425;-70
2021/07/15 01:44:53;;;;;;;29.13;18.53;;;;;;;23.64;60.14;98579.28;125641;1096;103015;-71
2021/07/15 01:47:25;;;;;;;35.90;18.90;;;;;;;23.55;60.26;98573.23;125717;1093;103068;-72
2021/07/15 01:49:59;;;;;;;30.00;18.00;;;;;;;23.49;59.93;98574.06;125663;1094;102927;-69
2021/07/15 01:52:29;;;;;;;34.43;17.27;;;;;;;23.44;60.42;98571.13;125687;1093;102919;-70
2021/07/15 01:55:03;;;;;;;32.47;17.87;;;;;;;23.39;60.15;98566.34;125649;1096;102977;-72
2021/07/15 01:57:37;;;;;;;36.25;18.00;;;;;;;23.34;60.47;98566.94;125677;1093;102998;-70
2021/07/15 02:00:09;;;;;;;31.23;16.03;;;;;;;23.30;60.71;98568.39;125694;1093;102932;-71
2021/07/15 02:02:44;;;;;;;31.17;17.67;;;;;;;23.25;60.34;98570.88;125693;1092;102922;-70
2021/07/15 02:05:17;;;;;;;32.07;17.30;;;;;;;23.18;60.62;98567.31;125692;1096;102980;-71
2021/07/15 02:07:48;;;;;;;30.03;17.17;;;;;;;23.14;60.68;98574.19;125715;1096;103024;-69
2021/07/15 02:10:23;;;;;;;31.53;17.27;;;;;;;23.07;60.37;98576.87;125670;1093;103159;-70
2021/07/15 02:12:54;;;;;;;35.23;17.23;;;;;;;23.03;60.45;98583.74;125668;1093;102977;-70
2021/07/15 02:15:29;;;;;;;30.60;17.57;;;;;;;23.00;60.49;98579.58;125677;1092;103012;-71
2021/07/15 02:18:00;;;;;;;27.57;16.00;;;;;;;22.96;60.54;98581.02;125750;1096;102906;-69
2021/07/15 02:20:33;;;;;;;35.93;17.47;;;;;;;22.92;61.01;98593.31;125683;1094;102942;-69
2021/07/15 02:23:05;;;;;;;32.93;16.73;;;;;;;22.90;61.23;98601.67;125607;1096;102934;-68
2021/07/15 02:25:37;;;;;;;30.80;16.75;;;;;;;22.89;61.02;98600.00;125684;1093;103023;-69
2021/07/15 02:28:11;;;;;;;31.73;15.73;;;;;;;22.89;60.89;98599.14;125654;1096;103517;-69
2021/07/15 02:30:39;;;;;;;;;;;;;;;22.87;61.24;98596.65;125693;1097;103012;-70
2021/07/15 02:33:16;;;;;;;27.57;16.83;;;;;;;22.84;60.93;98594.34;125674;1096;103380;-69
2021/07/15 02:35:53;;;;;;;30.17;15.23;;;;;;;22.82;61.04;98592.88;125651;1094;103123;-68
2021/07/15 02:38:27;;;;;;;31.33;16.17;;;;;;;22.78;61.58;98619.55;125715;1093;103003;-69
2021/07/15 02:40:59;;;;;;;33.37;17.17;;;;;;;22.77;61.49;98625.19;125703;1093;102997;-71
2021/07/15 02:43:31;;;;;;;31.83;18.00;;;;;;;22.73;61.09;98617.45;125701;1093;102916;-69
2021/07/15 02:46:00;;;;;;;35.00;16.15;;;;;;;22.70;61.80;98623.28;125683;1093;102951;-69
2021/07/15 02:48:28;;;;;;;32.27;15.43;;;;;;;22.67;61.33;98614.69;125657;1093;103149;-69
2021/07/15 02:50:56;;;;;;;31.47;15.43;;;;;;;22.63;61.10;98619.69;125713;1093;102916;-70
2021/07/15 02:53:33;;;;;;;32.03;14.50;;;;;;;22.61;61.37;98624.47;125674;1093;103071;-70
2021/07/15 02:56:10;;;;;;;34.33;15.13;;;;;;;22.58;61.16;98627.58;125705;1093;103437;-70
2021/07/15 02:59:15;;;;;;;29.33;14.33;;;;;;;22.55;61.50;98615.28;125675;1096;102913;-70
2021/07/15 03:02:03;;;;;;;30.93;14.20;;;;;;;22.49;61.95;98613.38;125660;1093;103052;-69
2021/07/15 03:04:59;;;;;;;26.57;13.67;;;;;;;22.48;61.79;98597.30;125662;1093;102927;-69
2021/07/15 03:07:36;;;;;;;35.03;15.37;;;;;;;22.45;61.45;98601.26;125684;1093;102969;-70
2021/07/15 03:10:09;;;;;;;32.27;14.80;;;;;;;22.44;61.76;98607.71;125691;1093;103000;-69
2021/07/15 03:12:43;;;;;;;30.67;14.60;;;;;;;22.44;62.03;98619.38;125677;1093;102999;-71
2021/07/15 03:15:14;;;;;;;36.80;13.53;;;;;;;22.45;61.86;98626.47;125678;1094;103006;-70
2021/07/15 03:17:51;;;;;;;32.47;13.47;;;;;;;22.44;62.06;98623.97;125659;1096;102926;-70
2021/07/15 03:20:42;;;;;;;28.53;13.17;;;;;;;22.39;61.73;98619.13;125649;1095;103010;-71
2021/07/15 03:23:18;;;;;;;34.97;13.67;;;;;;;22.35;61.88;98620.56;125681;1095;102915;-70
2021/07/15 03:25:55;;;;;;;27.37;12.33;;;;;;;22.30;61.51;98612.19;125685;1095;102913;-70
2021/07/15 03:28:31;;;;;;;33.87;12.63;;;;;;;22.27;61.86;98599.86;125617;1096;103212;-72
2021/07/15 03:31:08;;;;;;;28.87;13.03;;;;;;;22.27;62.30;98599.05;125739;1096;103377;-71
2021/07/15 03:33:41;;;;;;;27.07;12.43;;;;;;;22.29;61.33;98594.27;125665;1095;102935;-71
2021/07/15 03:36:13;;;;;;;31.03;11.98;;;;;;;22.33;61.92;98595.54;125692;1096;103020;-71
2021/07/15 03:38:45;;;;;;;29.90;12.83;;;;;;;22.37;62.07;98595.96;125656;1096;103408;-70
2021/07/15 03:41:17;;;;;;;31.68;14.13;;;;;;;22.39;61.86;98593.89;125680;1095;102916;-69
2021/07/15 03:43:50;;;;;;;30.33;13.37;;;;;;;22.41;62.24;98586.41;125702;1096;103094;-70
2021/07/15 03:46:22;;;;;;;35.00;13.40;;;;;;;22.44;62.40;98580.62;125667;1096;103015;-69
2021/07/15 03:48:54;;;;;;;29.87;13.17;;;;;;;22.47;62.25;98568.53;125705;1097;102950;-70
2021/07/15 03:51:22;;;;;;;33.03;12.63;;;;;;;22.51;62.54;98559.81;125727;1096;103124;-70
2021/07/15 03:53:54;;;;;;;30.63;14.10;;;;;;;22.55;62.41;98562.94;125649;1093;102905;-69
2021/07/15 03:56:25;;;;;;;26.17;12.87;;;;;;;22.59;62.36;98564.22;125650;1094;102913;-69
2021/07/15 03:59:01;;;;;;;33.20;14.00;;;;;;;22.62;62.57;98568.41;125653;1094;102920;-69
2021/07/15 04:01:37;;;;;;;35.50;14.00;;;;;;;22.66;62.29;98577.78;125680;1095;103012;-70
2021/07/15 04:04:10;;;;;;;28.90;13.73;;;;;;;22.70;62.33;98570.92;125684;1093;103086;-70
2021/07/15 04:06:42;;;;;;;27.20;12.90;;;;;;;22.75;62.25;98571.16;125667;1093;103055;-70
2021/07/15 04:09:15;;;;;;;29.30;13.97;;;;;;;22.80;62.65;98576.80;125686;1096;103074;-71
2021/07/15 04:11:48;;;;;;;30.75;14.05;;;;;;;22.85;62.56;98573.47;125608;1096;103071;-70
2021/07/15 04:14:30;;;;;;;26.63;13.10;;;;;;;22.89;62.59;98589.14;125665;1092;103041;-71
2021/07/15 04:17:06;;;;;;;27.33;12.40;;;;;;;22.97;62.75;98592.72;125667;1092;103418;-70
2021/07/15 04:19:38;;;;;;;26.83;11.67;;;;;;;23.02;62.72;98596.48;125630;1093;103094;-70
2021/07/15 04:22:12;;;;;;;20.73;9.57;;;;;;;23.07;62.34;98595.03;125683;1093;103023;-70
2021/07/15 04:24:46;;;;;;;26.17;10.23;;;;;;;23.12;62.50;98601.51;125695;1093;103057;-69
2021/07/15 04:27:19;;;;;;;26.13;9.53;;;;;;;23.17;62.25;98596.30;125735;1093;103016;-72
2021/07/15 04:29:50;;;;;;;20.63;8.70;;;;;;;23.24;62.62;98595.52;125705;1092;103103;-71
2021/07/15 04:32:30;;;;;;;23.10;9.00;;;;;;;23.31;62.64;98601.80;125637;1093;103189;-69
2021/07/15 04:35:00;;;;;;;21.23;7.40;;;;;;;23.36;62.61;98602.02;125670;1094;103068;-71
2021/07/15 04:37:32;;;;;;;23.47;7.57;;;;;;;23.42;62.64;98612.06;125652;1094;102991;-74
2021/07/15 04:40:05;;;;;;;21.90;7.77;;;;;;;23.47;62.14;98604.10;125693;1092;102916;-72
2021/07/15 04:42:38;;;;;;;26.07;8.13;;;;;;;23.54;62.55;98593.27;125682;1091;103019;-70
2021/07/15 04:45:12;;;;;;;22.13;7.93;;;;;;;23.58;62.11;98589.11;125671;1093;103012;-71
2021/07/15 04:47:46;;;;;;;21.47;8.00;;;;;;;23.63;62.62;98597.46;125690;1093;102998;-70
2021/07/15 04:50:24;;;;;;;23.70;7.13;;;;;;;23.70;62.21;98593.89;125650;1093;103044;-69
2021/07/15 04:53:09;;;;;;;19.73;6.60;;;;;;;23.75;62.31;98584.09;125689;1096;103185;-71
2021/07/15 04:55:41;;;;;;;18.47;6.93;;;;;;;23.77;62.49;98595.58;125655;1095;103174;-70
2021/07/15 04:58:13;;;;;;;25.93;8.17;;;;;;;23.78;62.10;98599.97;125615;1096;102999;-70
2021/07/15 05:00:45;;;;;;;21.55;7.80;;;;;;;23.82;62.19;98597.66;125687;1094;103016;-70
2021/07/15 05:03:16;;;;;;;21.10;7.47;;;;;;;23.88;62.09;98590.53;125652;1094;103023;-69
2021/07/15 05:05:44;;;;;;;20.13;7.40;;;;;;;23.90;61.85;98588.45;125688;1096;103003;-69
2021/07/15 05:08:13;;;;;;;20.60;7.10;;;;;;;23.95;61.69;98594.09;125635;1094;103087;-70
2021/07/15 05:10:44;;;;;;;19.73;7.80;;;;;;;23.99;61.73;98584.51;125590;1095;103035;-70
2021/07/15 05:13:13;;;;;;;20.73;7.20;;;;;;;24.04;61.60;98583.89;125652;1096;103540;-70
2021/07/15 05:15:44;;;;;;;17.73;7.27;;;;;;;24.05;61.54;98575.52;125661;1095;102940;-70
2021/07/15 05:18:16;;;;;;;20.87;8.93;;;;;;;24.09;61.99;98584.06;125669;1094;102946;-70
2021/07/15 05:20:44;;;;;;;19.37;6.83;;;;;;;24.16;62.01;98575.92;125697;1096;102940;-71
2021/07/15 05:23:13;;;;;;;21.30;6.57;;;;;;;24.20;61.62;98580.71;125700;1096;103063;-70
2021/07/15 05:25:44;;;;;;;18.40;7.27;;;;;;;24.25;61.78;98590.11;125753;1096;103072;-71
2021/07/15 05:28:13;;;;;;;17.83;7.07;;;;;;;24.29;61.71;98585.92;125634;1096;103019;-71
2021/07/15 05:30:41;;;;;;;24.90;7.63;;;;;;;24.34;61.32;98594.27;125716;1093;103012;-69
2021/07/15 05:33:13;;;;;;;23.50;8.87;;;;;;;24.40;61.56;98606.17;125718;1093;103043;-69
2021/07/15 05:35:44;;;;;;;16.93;7.27;;;;;;;24.47;61.56;98620.58;125608;1093;103098;-70
2021/07/15 05:38:15;;;;;;;26.40;12.53;;;;;;;24.52;61.72;98628.94;125672;1093;102916;-72
2021/07/15 05:40:44;;;;;;;21.60;8.87;;;;;;;24.59;61.52;98639.78;125665;1094;102937;-71
2021/07/15 05:43:13;;;;;;;20.75;7.35;;;;;;;24.64;61.34;98638.11;125660;1096;102972;-70
2021/07/15 05:45:44;;;;;;;20.00;8.23;;;;;;;24.66;61.29;98635.16;125697;1092;103015;-70
2021/07/15 05:48:13;;;;;;;21.93;8.33;;;;;;;24.70;61.55;98628.25;125648;1093;103029;-71
2021/07/15 05:50:41;;;;;;;20.40;8.20;;;;;;;24.76;61.40;98634.73;125678;1093;102998;-71
2021/07/15 05:53:09;;;;;;;24.30;8.10;;;;;;;24.80;61.35;98636.83;125703;1096;103013;-70
2021/07/15 05:55:38;;;;;;;20.77;8.47;;;;;;;24.86;61.18;98647.90;125691;1093;103006;-70
2021/07/15 05:58:08;;;;;;;18.60;7.40;;;;;;;24.94;60.91;98650.35;125700;1091;103087;-70
2021/07/15 06:00:39;;;;;;;20.00;8.50;;;;;;;25.06;61.44;98659.52;125644;1096;103055;-71
2021/07/15 06:03:11;;;;;;;18.90;7.53;;;;;;;25.14;60.71;98652.16;125700;1096;102942;-69
2021/07/15 06:05:42;;;;;;;19.73;8.68;;;;;;;25.20;60.96;98649.40;125689;1093;103049;-70
2021/07/15 06:08:11;;;;;;;18.90;9.00;;;;;;;25.29;60.77;98663.58;125680;1093;102962;-72
2021/07/15 06:10:39;;;;;;;27.37;9.37;;;;;;;25.34;60.64;98661.04;125724;1093;102937;-70
2021/07/15 06:13:08;;;;;;;21.73;9.50;;;;;;;25.39;60.71;98654.96;125697;1093;103005;-70
2021/07/15 06:15:36;;;;;;;23.67;8.60;;;;;;;25.44;60.82;98641.56;125723;1094;103000;-73
2021/07/15 06:18:04;;;;;;;21.40;8.07;;;;;;;25.50;60.77;98640.66;125711;1093;103513;-70
2021/07/15 06:20:33;;;;;;;20.37;8.23;;;;;;;25.53;60.35;98637.50;125812;1093;103063;-71
2021/07/15 06:23:01;;;;;;;21.10;8.90;;;;;;;25.56;60.38;98633.52;125717;1096;102907;-70
2021/07/15 06:25:30;;;;;;;21.15;8.55;;;;;;;25.63;60.85;98634.31;125706;1092;103032;-70
2021/07/15 06:27:58;;;;;;;23.27;9.03;;;;;;;25.68;60.40;98634.45;125715;1092;103031;-71
2021/07/15 06:30:26;;;;;;;22.20;9.33;;;;;;;25.77;60.35;98624.14;125671;1096;103032;-70
2021/07/15 06:32:55;;;;;;;24.10;10.67;;;;;;;25.93;60.14;98616.45;125687;1096;102980;-70
2021/07/15 06:35:27;;;;;;;31.43;20.57;;;;;;;26.12;60.02;98620.05;125684;1094;103056;-68
2021/07/15 06:37:56;;;;;;;27.23;13.00;;;;;;;26.20;60.05;98616.26;125679;1096;103062;-70
2021/07/15 06:40:25;;;;;;;25.60;10.67;;;;;;;26.28;60.29;98611.34;125721;1093;102920;-70
2021/07/15 06:42:54;;;;;;;22.47;9.97;;;;;;;26.41;60.01;98607.63;125669;1096;103034;-72
2021/07/15 06:45:22;;;;;;;23.33;10.73;;;;;;;26.55;60.13;98602.04;125708;1093;102955;-71
2021/07/15 06:47:52;;;;;;;22.20;9.07;;;;;;;26.62;60.02;98602.80;125718;1092;102994;-70
2021/07/15 06:50:21;;;;;;;23.83;9.40;;;;;;;26.71;59.75;98604.13;125726;1093;102911;-72
2021/07/15 06:52:49;;;;;;;22.03;9.73;;;;;;;26.80;59.91;98599.22;125709;1093;102997;-70
2021/07/15 06:55:17;;;;;;;27.57;10.33;;;;;;;26.93;59.75;98598.24;125667;1093;103010;-70
2021/07/15 06:57:47;;;;;;;24.43;9.73;;;;;;;27.07;59.80;98601.62;125717;1093;103511;-70
2021/07/15 07:00:18;;;;;;;20.63;9.80;;;;;;;27.19;59.43;98599.77;125707;1093;102872;-69
2021/07/15 07:02:49;;;;;;;23.27;10.63;;;;;;;27.56;59.22;98596.09;125797;1095;103000;-70
2021/07/15 07:05:22;;;;;;;24.47;10.30;;;;;;;28.20;58.51;98603.67;125625;1096;102919;-71
2021/07/15 07:07:50;;;;;;;22.07;9.37;;;;;;;28.79;58.65;98605.48;125661;1095;103413;-70
2021/07/15 07:10:21;;;;;;;24.93;9.70;;;;;;;29.23;57.92;98599.50;125708;1096;103033;-71
2021/07/15 07:12:49;;;;;;;20.47;9.97;;;;;;;29.71;58.17;98591.03;125648;1095;102932;-69
2021/07/15 07:15:24;;;;;;;23.20;10.67;;;;;;;30.35;58.02;98589.80;125626;1094;103068;-70
2021/07/15 07:17:57;;;;;;;22.67;10.00;;;;;;;31.11;57.93;98591.03;125697;1096;103001;-70
2021/07/15 07:20:26;;;;;;;21.47;10.20;;;;;;;31.70;57.67;98585.82;125718;1096;102916;-69
2021/07/15 07:22:58;;;;;;;21.33;10.88;;;;;;;32.38;57.89;98584.40;125757;1096;103023;-70
2021/07/15 07:25:26;;;;;;;23.13;11.00;;;;;;;33.00;57.51;98588.25;125716;1096;102916;-69
2021/07/15 07:27:55;;;;;;;21.37;10.80;;;;;;;33.49;57.25;98592.48;125607;1096;103004;-70
2021/07/15 07:30:24;;;;;;;19.30;10.67;;;;;;;33.82;56.71;98590.27;125686;1096;103025;-69
2021/07/15 07:32:53;;;;;;;21.07;11.57;;;;;;;33.60;56.95;98589.73;125646;1096;102944;-70
2021/07/15 07:35:23;;;;;;;23.80;11.50;;;;;;;33.57;57.26;98585.59;125713;1096;102948;-71
2021/07/15 07:37:51;;;;;;;26.63;12.20;;;;;;;33.54;56.91;98597.16;125669;1096;102919;-70
2021/07/15 07:40:20;;;;;;;28.20;23.23;;;;;;;33.34;56.22;98592.42;125631;1097;103076;-69
2021/07/15 07:42:49;;;;;;;69.23;62.43;;;;;;;33.18;56.18;98597.09;125619;1095;103065;-71
2021/07/15 07:45:18;;;;;;;28.13;16.77;;;;;;;33.25;55.67;98603.17;125575;1094;102998;-69
2021/07/15 07:47:48;;;;;;;24.47;13.40;;;;;;;33.25;55.84;98598.47;125638;1094;103065;-70
2021/07/15 07:50:18;;;;;;;21.77;13.33;;;;;;;33.20;55.08;98597.64;125635;1095;103440;-71
2021/07/15 07:52:47;;;;;;;22.53;12.17;;;;;;;33.17;54.42;98601.79;125611;1096;103209;-70
2021/07/15 07:55:16;;;;;;;22.45;12.65;;;;;;;32.86;54.03;98598.92;125717;1096;102913;-71
2021/07/15 07:57:45;;;;;;;26.27;12.23;;;;;;;32.47;54.23;98588.27;125638;1095;102947;-70
2021/07/15 08:00:16;;;;;;;28.83;13.77;;;;;;;32.41;54.06;98590.19;125671;1095;103008;-70
2021/07/15 08:02:47;;;;;;;26.57;13.23;;;;;;;32.43;53.97;98578.90;125706;1093;103071;-70
2021/07/15 08:05:21;;;;;;;29.50;12.80;;;;;;;32.35;53.57;98569.23;125625;1093;102930;-69
2021/07/15 08:07:51;;;;;;;24.33;12.93;;;;;;;32.30;53.52;98577.46;125709;1093;103039;-70
2021/07/15 08:10:21;;;;;;;24.20;12.90;;;;;;;32.28;53.19;98576.86;125669;1092;103009;-70
2021/07/15 08:12:51;;;;;;;28.87;13.10;;;;;;;32.26;53.03;98579.05;125689;1093;103392;-70
2021/07/15 08:15:21;;;;;;;28.10;12.67;;;;;;;32.13;52.58;98577.61;125701;1093;102958;-71
2021/07/15 08:17:50;;;;;;;24.77;12.73;;;;;;;32.03;52.69;98583.88;125680;1093;103094;-69
2021/07/15 08:20:19;;;;;;;23.33;13.10;;;;;;;31.93;52.72;98585.47;125729;1093;102916;-71
2021/07/15 08:22:47;;;;;;;24.53;12.83;;;;;;;31.73;52.11;98580.64;125678;1096;103030;-71
2021/07/15 08:25:19;;;;;;;26.40;13.00;;;;;;;31.28;52.01;98577.22;125740;1095;102919;-72
2021/07/15 08:27:49;;;;;;;30.85;14.45;;;;;;;31.06;52.10;98565.41;125668;1093;103159;-71
2021/07/15 08:30:24;;;;;;;25.37;12.63;;;;;;;30.83;51.56;98561.89;125653;1093;103058;-70
2021/07/15 08:32:53;;;;;;;28.35;14.20;;;;;;;30.45;51.08;98553.44;125659;1093;102919;-70
2021/07/15 08:35:27;;;;;;;29.65;13.83;;;;;;;30.23;51.51;98556.17;125651;1092;103520;-70
2021/07/15 08:37:57;;;;;;;25.53;13.40;;;;;;;30.03;51.31;98563.03;125705;1093;103066;-71
2021/07/15 08:40:29;;;;;;;28.00;14.67;;;;;;;29.76;51.17;98587.53;125725;1092;102908;-72
2021/07/15 08:43:02;;;;;;;37.67;27.70;;;;;;;29.66;51.74;98599.17;125676;1095;103073;-71
2021/07/15 08:45:35;;;;;;;33.07;18.13;;;;;;;29.59;51.73;98607.53;125743;1091;103039;-70
2021/07/15 08:48:10;;;;;;;27.00;14.10;;;;;;;29.61;51.10;98627.30;125729;1092;102932;-71
2021/07/15 08:50:40;;;;;;;33.97;14.43;;;;;;;29.53;51.57;98634.02;125757;1094;102946;-70
2021/07/15 08:53:08;;;;;;;29.33;14.30;;;;;;;29.52;51.04;98645.23;125640;1094;102983;-68
2021/07/15 08:58:18;;;;;;;27.33;15.33;;;;;;;29.38;51.25;98661.13;125717;1093;102913;-69
2021/07/15 09:00:48;;;;;;;;;;;;;;;29.20;51.34;98679.40;125692;1093;102914;-70
2021/07/15 09:03:18;;;;;;;26.83;14.77;;;;;;;29.00;50.89;98690.77;125652;1093;102908;-70
2021/07/15 09:05:47;;;;;;;27.70;14.40;;;;;;;28.87;51.56;98694.61;125669;1093;103073;-69
2021/07/15 09:08:15;;;;;;;30.87;16.63;;;;;;;28.77;50.94;98705.33;125639;1093;103183;-70
2021/07/15 09:10:46;;;;;;;25.90;13.80;;;;;;;28.71;51.49;98701.63;125760;1093;102824;-71
2021/07/15 09:13:16;;;;;;;26.63;15.43;;;;;;;28.58;51.05;98699.94;125653;1096;102994;-70
2021/07/15 09:15:49;;;;;;;25.95;15.25;;;;;;;28.57;51.68;98698.28;125728;1094;103348;-69
2021/07/15 09:18:18;;;;;;;25.60;15.67;;;;;;;28.56;51.52;98695.80;125731;1093;103044;-70
2021/07/15 09:20:50;;;;;;;26.90;16.37;;;;;;;28.52;51.19;98685.33;125687;1093;103029;-70
2021/07/15 09:23:19;;;;;;;27.13;15.17;;;;;;;28.53;51.21;98686.99;125704;1093;103010;-73
2021/07/15 09:25:51;;;;;;;25.13;14.77;;;;;;;28.62;51.32;98681.17;125688;1095;103064;-70
2021/07/15 09:28:30;;;;;;;25.37;15.50;;;;;;;28.68;51.71;98678.30;125730;1093;103032;-70
2021/07/15 09:31:16;;;;;;;31.27;15.10;;;;;;;28.69;51.90;98668.20;125727;1093;102946;-70
2021/07/15 09:33:47;;;;;;;27.03;13.13;;;;;;;28.64;52.17;98674.37;125658;1093;102999;-70
2021/07/15 09:36:21;;;;;;;26.83;13.90;;;;;;;28.64;52.25;98670.81;125716;1096;102999;-69
2021/07/15 09:38:50;;;;;;;25.83;13.97;;;;;;;28.60;51.97;98664.97;125684;1093;102912;-71
2021/07/15 09:41:21;;;;;;;24.13;13.40;;;;;;;28.55;51.77;98645.70;125710;1091;102934;-72
2021/07/15 09:43:50;;;;;;;25.90;14.07;;;;;;;28.60;52.00;98645.82;125673;1095;102948;-71
2021/07/15 09:46:23;;;;;;;24.07;13.70;;;;;;;28.67;52.06;98637.50;125681;1096;103089;-72
2021/07/15 09:49:08;;;;;;;29.55;14.55;;;;;;;28.90;52.14;98635.80;125704;1092;102997;-70
2021/07/15 09:51:40;;;;;;;27.47;14.17;;;;;;;29.11;51.75;98643.36;125633;1095;103065;-69
2021/07/15 09:54:15;;;;;;;27.80;13.40;;;;;;;29.28;51.98;98649.97;125733;1096;103144;-69
2021/07/15 09:56:47;;;;;;;25.93;13.13;;;;;;;29.49;52.00;98649.28;125693;1096;103124;-70
2021/07/15 09:59:16;;;;;;;26.93;13.17;;;;;;;29.74;52.58;98650.83;125664;1093;103001;-70
2021/07/15 10:01:49;;;;;;;23.43;12.63;;;;;;;29.83;52.45;98668.50;125703;1095;102998;-70
2021/07/15 10:04:32;;;;;;;28.20;12.80;;;;;;;29.80;52.17;98673.66;125776;1092;103039;-73
2021/07/15 10:07:03;;;;;;;25.73;13.73;;;;;;;29.73;52.58;98679.31;125722;1096;100630;-70
2021/07/15 10:09:32;;;;;;;30.63;14.77;;;;;;;29.71;52.07;98676.80;125715;1093;102936;-72
2021/07/15 10:12:01;;;;;;;23.77;13.83;;;;;;;29.76;52.55;98670.56;125696;1093;103234;-70
2021/07/15 10:14:32;;;;;;;29.67;15.30;;;;;;;29.78;52.18;98673.89;125712;1092;102998;-70
2021/07/15 10:17:01;;;;;;;24.90;13.35;;;;;;;29.83;52.56;98665.77;125704;1093;102918;-70
2021/07/15 10:19:30;;;;;;;28.00;15.67;;;;;;;29.88;52.68;98661.45;125683;1094;102949;-71
2021/07/15 10:22:07;;;;;;;23.40;14.60;;;;;;;29.90;52.60;98670.26;127113;1093;102941;-70
2021/07/15 10:24:41;;;;;;;25.83;13.97;;;;;;;29.94;51.93;98671.42;125655;1095;103070;-71
2021/07/15 10:27:10;;;;;;;26.93;14.57;;;;;;;29.98;52.08;98678.11;125716;1093;102965;-70
2021/07/15 10:29:40;;;;;;;22.33;14.00;;;;;;;30.05;52.30;98681.52;125620;1093;102974;-72
2021/07/15 10:32:11;;;;;;;25.80;16.40;;;;;;;30.09;52.25;98679.95;125705;1092;103019;-70
2021/07/15 10:34:40;;;;;;;25.37;16.23;;;;;;;30.02;52.50;98668.30;125567;1093;103047;-71
2021/07/15 10:37:09;;;;;;;25.07;15.93;;;;;;;29.99;52.05;98680.59;125674;1093;102914;-71
2021/07/15 10:39:39;;;;;;;25.30;15.23;;;;;;;29.85;51.81;98673.76;125626;1093;103002;-73
2021/07/15 10:42:07;;;;;;;27.23;14.43;;;;;;;29.73;51.83;98670.25;125664;1093;102932;-69
2021/07/15 10:44:40;;;;;;;22.40;14.20;;;;;;;29.56;52.21;98663.66;125680;1095;103041;-74
2021/07/15 10:47:13;;;;;;;28.17;15.33;;;;;;;29.43;51.82;98660.41;125704;1095;103010;-71
2021/07/15 10:49:45;;;;;;;31.13;17.00;;;;;;;29.32;52.06;98675.79;125607;1092;103038;-69
2021/07/15 10:52:18;;;;;;;25.80;15.40;;;;;;;29.25;51.72;98684.98;125725;1094;102944;-69
2021/07/15 10:54:48;;;;;;;28.13;16.73;;;;;;;29.13;51.75;98689.66;125666;1093;102946;-71
2021/07/15 10:57:23;;;;;;;26.63;15.50;;;;;;;29.00;51.93;98684.44;125756;1095;102336;-70
2021/07/15 10:59:53;;;;;;;26.70;15.40;;;;;;;28.88;51.99;98699.02;125721;1093;102972;-69
2021/07/15 11:02:25;;;;;;;27.70;13.95;;;;;;;28.85;51.97;98710.44;126083;1092;102917;-71
2021/07/15 11:04:56;;;;;;;25.85;15.20;;;;;;;28.81;52.31;98715.54;125726;1095;103221;-70
2021/07/15 11:07:30;;;;;;;27.97;15.20;;;;;;;28.69;52.30;98701.03;125641;1093;103053;-70
2021/07/15 11:10:25;;;;;;;24.15;14.65;;;;;;;28.67;52.58;98701.25;125664;1093;101717;-70
2021/07/15 11:13:04;;;;;;;25.73;14.50;;;;;;;28.70;52.51;98705.43;125766;1093;103534;-70
2021/07/15 11:15:46;;;;;;;27.40;15.45;;;;;;;28.65;52.17;98708.86;125734;1096;102919;-70
2021/07/15 11:18:43;;;;;;;25.60;14.43;;;;;;;28.62;52.66;98711.26;125672;1093;102919;-71
2021/07/15 11:21:30;;;;;;;26.50;14.03;;;;;;;28.57;52.65;98717.42;125645;1094;102916;-70
2021/07/15 11:24:05;;;;;;;24.67;14.10;;;;;;;28.53;52.30;98719.82;125666;1093;103428;-70
2021/07/15 11:26:42;;;;;;;23.97;13.40;;;;;;;28.56;52.60;98710.29;125629;1093;103540;-70
2021/07/15 11:29:13;;;;;;;23.70;12.80;;;;;;;28.61;52.78;98706.86;125642;1092;102934;-70
2021/07/15 11:31:53;;;;;;;24.33;14.43;;;;;;;28.63;52.60;98708.27;125553;1094;103445;-70